Terminal Aerodrome Forecast
Issued by NWS Upton, NY

Home | Current Version | Previous Version | Text Only | Print | Product List | Glossary On
Versions: 1 2 3 4 5 6 7 8 9 10 11 12 13 14 15 16 17 18 19 20 21 22 23 24 25 26 27 28 29 30 31 32 33 34 35 36
892
FTUS41 KOKX 240220 AAA
TAFLGA
TAF AMD
KLGA 240220Z 2402/2506 25005KT 5SM BR OVC005 WS020/27035KT
     FM240700 26006KT P6SM OVC010
     FM241400 32007KT P6SM FEW020 OVC080
     FM241800 36005KT P6SM OVC080
     FM242100 33004KT 5SM -RA BR BKN025 OVC050
     FM250300 05004KT 4SM -DZ BR BKN015 OVC050=

USA.gov is the U.S. government's official web portal to all federal, state and local government web resources and services.